Time;durP1;ratioP1;P1;durP2;ratioP2;P2;SDS_P1;SDS_P2;PMS_P1;PMS_P2;Temp;Humidity;BMP_temperature;BMP_pressure;BME280_temperature;BME280_humidity;BME280_pressure;Samples;Min_cycle;Max_cycle;Signal;HPM_P1;HPM_P2
2023/08/07 00:02:09;;;;;;;9.90;6.60;;;;;;;13.62;100.00;96615.27;107041;1278;26826;-86
2023/08/07 00:04:37;;;;;;;9.70;7.90;;;;;;;13.59;100.00;96616.11;107034;1275;22474;-86
2023/08/07 00:07:05;;;;;;;9.90;7.20;;;;;;;13.59;100.00;96610.17;106992;1277;24364;-84
2023/08/07 00:09:34;;;;;;;9.70;7.00;;;;;;;13.57;100.00;96608.58;106872;1275;24274;-86
2023/08/07 00:12:03;;;;;;;7.10;5.90;;;;;;;13.56;100.00;96612.23;107017;1275;22800;-86
2023/08/07 00:14:31;;;;;;;10.10;7.00;;;;;;;13.56;100.00;96613.89;106874;1275;24214;-85
2023/08/07 00:16:59;;;;;;;11.00;6.90;;;;;;;13.54;100.00;96610.18;107026;1273;22531;-86
2023/08/07 00:19:27;;;;;;;8.90;6.10;;;;;;;13.52;100.00;96611.77;106988;1277;23464;-86
2023/08/07 00:21:56;;;;;;;9.20;6.40;;;;;;;13.52;100.00;96609.84;107161;1266;22525;-88
2023/08/07 00:24:24;;;;;;;9.20;6.40;;;;;;;13.51;100.00;96614.98;107053;1277;22718;-85
2023/08/07 00:26:52;;;;;;;7.80;6.20;;;;;;;13.51;100.00;96612.98;106973;1270;160936;-86
2023/08/07 00:29:21;;;;;;;7.90;6.10;;;;;;;13.50;100.00;96619.39;107062;1277;22534;-86
2023/08/07 00:31:49;;;;;;;10.00;6.50;;;;;;;13.49;100.00;96617.12;106860;1276;22536;-85
2023/08/07 00:34:17;;;;;;;7.10;5.90;;;;;;;13.50;100.00;96612.35;107012;1278;25103;-87
2023/08/07 00:36:45;;;;;;;6.90;5.70;;;;;;;13.50;100.00;96613.89;107029;1277;25519;-86
2023/08/07 00:39:13;;;;;;;7.60;5.70;;;;;;;13.48;100.00;96611.90;106987;1278;22741;-86
2023/08/07 00:41:41;;;;;;;8.40;5.70;;;;;;;13.49;100.00;96618.20;106789;1270;24386;-85
2023/08/07 00:44:09;;;;;;;6.60;5.80;;;;;;;13.50;100.00;96617.59;107093;1270;25312;-86
2023/08/07 00:46:39;;;;;;;7.40;6.00;;;;;;;13.52;100.00;96611.54;106995;1276;25291;-83
2023/08/07 00:49:09;;;;;;;8.00;6.10;;;;;;;13.53;100.00;96613.79;106884;1277;22605;-84
2023/08/07 00:51:39;;;;;;;6.90;5.90;;;;;;;13.53;100.00;96613.57;106962;1277;22521;-84
2023/08/07 00:54:10;;;;;;;9.00;5.60;;;;;;;13.52;100.00;96616.17;106992;1277;22641;-84
2023/08/07 00:56:39;;;;;;;7.00;5.60;;;;;;;13.52;100.00;96610.45;106890;1278;22579;-84
2023/08/07 00:59:08;;;;;;;7.30;5.80;;;;;;;13.51;100.00;96609.59;106908;1278;25319;-84
2023/08/07 01:01:36;;;;;;;8.10;5.80;;;;;;;13.52;100.00;96603.88;106822;1279;22643;-84
2023/08/07 01:04:06;;;;;;;7.00;5.90;;;;;;;13.54;100.00;96607.71;106886;1273;22820;-82
2023/08/07 01:06:34;;;;;;;7.50;6.00;;;;;;;13.54;100.00;96602.15;106830;1277;24212;-83
2023/08/07 01:09:02;;;;;;;8.50;6.30;;;;;;;13.55;100.00;96598.54;106730;1278;22533;-82
2023/08/07 01:11:45;;;;;;;8.10;6.10;;;;;;;13.54;100.00;96596.13;106940;1275;22800;-82
2023/08/07 01:14:43;;;;;;;6.80;6.10;;;;;;;13.54;100.00;96591.10;106970;1274;25274;-83
2023/08/07 01:17:15;;;;;;;7.50;6.20;;;;;;;13.56;100.00;96596.69;106948;1278;24225;-83
2023/08/07 01:19:45;;;;;;;8.70;6.60;;;;;;;13.58;100.00;96598.68;107042;1278;22539;-83
2023/08/07 01:22:16;;;;;;;9.90;6.40;;;;;;;13.59;100.00;96604.06;107893;1275;22545;-83
2023/08/07 01:24:50;;;;;;;9.50;7.40;;;;;;;13.61;100.00;96607.52;109007;1278;22491;-82
2023/08/07 01:27:17;;;;;;;14.40;7.70;;;;;;;13.61;100.00;96612.38;109273;1278;22542;-83
2023/08/07 01:29:57;;;;;;;9.30;7.60;;;;;;;13.62;100.00;96613.58;109414;1278;22947;-84
2023/08/07 01:32:39;;;;;;;11.40;7.40;;;;;;;13.64;100.00;96606.96;109508;1278;22547;-83
2023/08/07 01:35:11;;;;;;;13.00;7.50;;;;;;;13.66;100.00;96606.39;107637;1279;22946;-84
2023/08/07 01:37:41;;;;;;;11.30;7.30;;;;;;;13.67;100.00;96607.27;106725;1278;23253;-83
2023/08/07 01:44:56;;;;;;;7.90;7.10;;;;;;;13.65;100.00;96608.52;106862;1279;22524;-84
2023/08/07 01:47:24;;;;;;;10.30;6.70;;;;;;;13.63;100.00;96602.46;106737;1278;22538;-84
2023/08/07 01:49:53;;;;;;;10.00;6.30;;;;;;;13.63;100.00;96604.14;106771;1276;25358;-83
2023/08/07 01:52:21;;;;;;;9.30;6.00;;;;;;;13.63;100.00;96607.86;106857;1275;25357;-83
2023/08/07 01:54:49;;;;;;;7.80;6.70;;;;;;;13.62;100.00;96606.61;106913;1277;23889;-83
2023/08/07 01:57:17;;;;;;;8.00;6.20;;;;;;;13.63;100.00;96611.11;107020;1269;22742;-82
2023/08/07 01:59:45;;;;;;;8.30;6.70;;;;;;;13.61;100.00;96610.60;106724;1277;25239;-83
2023/08/07 02:02:13;;;;;;;9.70;7.00;;;;;;;13.63;100.00;96611.96;106755;1273;24533;-83
2023/08/07 02:04:42;;;;;;;9.40;6.40;;;;;;;13.62;100.00;96605.23;106798;1277;25363;-83
2023/08/07 02:07:10;;;;;;;7.40;6.50;;;;;;;13.63;100.00;96609.11;106798;1275;22654;-83
2023/08/07 02:09:38;;;;;;;10.80;6.60;;;;;;;13.64;100.00;96611.68;106916;1278;24206;-83
2023/08/07 02:12:06;;;;;;;7.00;5.80;;;;;;;13.64;100.00;96615.86;106977;1277;22602;-83
2023/08/07 02:14:34;;;;;;;9.60;6.60;;;;;;;13.63;100.00;96618.84;106726;1277;25080;-84
2023/08/07 02:17:02;;;;;;;8.10;6.90;;;;;;;13.63;100.00;96616.84;106977;1276;22553;-86
2023/08/07 02:19:30;;;;;;;7.20;6.30;;;;;;;13.65;100.00;96618.96;106990;1276;25015;-86
2023/08/07 02:21:59;;;;;;;6.30;4.90;;;;;;;13.66;100.00;96619.38;106761;1272;22673;-87
2023/08/07 02:24:27;;;;;;;6.50;5.30;;;;;;;13.66;100.00;96619.75;107053;1263;22660;-87
2023/08/07 02:26:55;;;;;;;7.00;5.70;;;;;;;13.67;100.00;96620.55;107260;1277;22643;-84
2023/08/07 02:29:24;;;;;;;7.70;5.40;;;;;;;13.69;100.00;96622.14;107158;1270;24249;-84
2023/08/07 02:31:52;;;;;;;6.90;5.70;;;;;;;13.70;100.00;96628.13;106892;1276;22676;-83
2023/08/07 02:34:21;;;;;;;7.20;5.60;;;;;;;13.70;100.00;96625.42;107317;1273;22595;-83
2023/08/07 02:36:49;;;;;;;5.80;5.20;;;;;;;13.72;100.00;96628.42;107023;1273;22779;-85
2023/08/07 02:39:17;;;;;;;7.40;5.90;;;;;;;13.70;100.00;96630.00;106969;1276;22561;-85
2023/08/07 02:41:45;;;;;;;7.70;5.00;;;;;;;13.70;100.00;96630.98;106922;1277;25253;-83
2023/08/07 02:44:13;;;;;;;6.90;5.80;;;;;;;13.73;100.00;96634.54;107008;1277;22567;-80
2023/08/07 02:46:41;;;;;;;10.90;6.80;;;;;;;13.74;100.00;96630.48;106975;1278;22787;-81
2023/08/07 02:49:09;;;;;;;10.40;6.40;;;;;;;13.72;100.00;96627.86;107047;1277;23923;-80
2023/08/07 02:51:38;;;;;;;10.50;6.60;;;;;;;13.73;100.00;96624.79;106972;1277;22660;-81
2023/08/07 02:54:06;;;;;;;9.00;5.50;;;;;;;13.72;100.00;96627.64;107040;1277;22828;-81
2023/08/07 02:56:34;;;;;;;9.30;6.20;;;;;;;13.72;100.00;96628.80;106734;1270;22535;-81
2023/08/07 02:59:02;;;;;;;9.50;5.90;;;;;;;13.72;100.00;96628.10;106844;1278;22537;-81
2023/08/07 03:01:30;;;;;;;9.80;6.50;;;;;;;13.71;100.00;96628.01;106749;1276;25316;-81
2023/08/07 03:03:58;;;;;;;13.00;5.90;;;;;;;13.72;100.00;96628.19;106801;1278;24363;-81
2023/08/07 03:06:26;;;;;;;7.30;5.40;;;;;;;13.70;100.00;96628.07;106749;1278;22539;-81
2023/08/07 03:08:54;;;;;;;8.10;6.00;;;;;;;13.67;100.00;96629.08;106915;1276;22521;-80
2023/08/07 03:11:22;;;;;;;10.60;7.00;;;;;;;13.68;100.00;96626.00;106891;1278;25561;-81
2023/08/07 03:13:50;;;;;;;9.30;6.50;;;;;;;13.67;100.00;96625.74;106892;1272;22524;-81
2023/08/07 03:16:18;;;;;;;13.60;7.40;;;;;;;13.67;100.00;96625.73;106888;1271;24366;-81
2023/08/07 03:18:47;;;;;;;10.50;6.60;;;;;;;13.71;100.00;96627.02;107041;1275;22533;-82
2023/08/07 03:21:15;;;;;;;10.90;6.00;;;;;;;13.73;100.00;96631.38;106868;1276;22525;-81
2023/08/07 03:23:43;;;;;;;9.90;6.20;;;;;;;13.72;100.00;96637.53;106829;1278;24231;-81
2023/08/07 03:26:12;;;;;;;6.90;5.80;;;;;;;13.72;100.00;96641.25;106792;1277;22644;-81
2023/08/07 03:28:46;;;;;;;7.60;5.40;;;;;;;13.73;100.00;96641.96;106903;1270;23036;-80
2023/08/07 03:31:15;;;;;;;8.00;5.10;;;;;;;13.72;100.00;96642.35;106951;1272;25391;-82
2023/08/07 03:33:43;;;;;;;7.10;5.10;;;;;;;13.71;100.00;96646.34;106698;1278;22633;-81
2023/08/07 03:36:12;;;;;;;6.90;4.90;;;;;;;13.71;100.00;96646.95;106829;1279;22577;-82
2023/08/07 03:38:41;;;;;;;8.90;5.10;;;;;;;13.70;100.00;96645.16;106818;1279;22525;-82
2023/08/07 03:41:10;;;;;;;6.80;4.60;;;;;;;13.74;100.00;96653.83;106676;1278;22653;-82
2023/08/07 03:43:38;;;;;;;6.40;5.10;;;;;;;13.71;100.00;96657.02;106816;1279;25321;-82
2023/08/07 03:46:06;;;;;;;6.30;4.50;;;;;;;13.72;100.00;96654.95;107423;1279;23565;-83
2023/08/07 03:48:35;;;;;;;7.30;5.00;;;;;;;13.74;100.00;96653.60;106654;1278;22522;-83
2023/08/07 03:51:05;;;;;;;8.40;4.70;;;;;;;13.74;100.00;96651.90;106654;1278;22640;-81
2023/08/07 03:53:37;;;;;;;6.60;5.00;;;;;;;13.75;100.00;96657.34;106804;1278;22734;-82
2023/08/07 03:56:05;;;;;;;6.30;4.80;;;;;;;13.73;100.00;96656.05;106710;1278;22535;-81
2023/08/07 03:58:34;;;;;;;6.70;5.10;;;;;;;13.73;100.00;96662.09;106825;1277;24381;-81
2023/08/07 04:01:02;;;;;;;7.80;5.00;;;;;;;13.74;100.00;96665.19;106831;1278;25272;-82
2023/08/07 04:03:31;;;;;;;7.80;5.00;;;;;;;13.75;100.00;96672.42;106983;1278;25287;-81
2023/08/07 04:06:05;;;;;;;7.70;5.50;;;;;;;13.73;100.00;96676.79;106822;1278;22880;-80
2023/08/07 04:08:33;;;;;;;10.50;5.60;;;;;;;13.74;100.00;96672.40;106978;1277;22519;-81
2023/08/07 04:11:04;;;;;;;6.00;4.90;;;;;;;13.75;100.00;96670.73;107020;1277;24350;-81
2023/08/07 04:13:33;;;;;;;7.50;5.50;;;;;;;13.75;100.00;96676.52;106844;1278;24451;-81
2023/08/07 04:16:03;;;;;;;8.60;5.50;;;;;;;13.75;100.00;96678.69;106768;1278;24329;-81
2023/08/07 04:18:33;;;;;;;7.20;5.50;;;;;;;13.76;100.00;96678.80;107098;1276;22524;-81
2023/08/07 04:21:03;;;;;;;9.20;4.90;;;;;;;13.79;100.00;96679.79;106893;1276;22555;-81
2023/08/07 04:23:32;;;;;;;6.80;5.30;;;;;;;13.79;100.00;96676.93;107012;1276;22529;-81
2023/08/07 04:26:00;;;;;;;9.50;5.40;;;;;;;13.79;100.00;96675.76;107053;1276;22518;-80
2023/08/07 04:28:29;;;;;;;10.00;6.70;;;;;;;13.77;100.00;96678.36;107015;1276;25271;-81
2023/08/07 04:30:57;;;;;;;7.30;4.90;;;;;;;13.79;100.00;96678.85;106933;1276;22547;-80
2023/08/07 04:33:25;;;;;;;9.20;5.40;;;;;;;13.76;100.00;96675.69;107043;1276;22634;-81
2023/08/07 04:35:53;;;;;;;11.70;5.90;;;;;;;13.76;100.00;96677.17;107015;1276;24647;-81
2023/08/07 04:38:22;;;;;;;13.50;5.80;;;;;;;13.79;100.00;96675.07;107037;1276;22521;-81
2023/08/07 04:40:50;;;;;;;7.30;4.90;;;;;;;13.81;100.00;96677.45;107041;1276;22557;-81
2023/08/07 04:43:21;;;;;;;8.10;4.70;;;;;;;13.81;100.00;96686.49;107038;1276;22619;-81
2023/08/07 04:45:50;;;;;;;6.60;4.10;;;;;;;13.78;100.00;96683.02;107047;1276;22543;-82
2023/08/07 04:48:18;;;;;;;5.30;3.70;;;;;;;13.77;100.00;96682.90;107195;1277;24383;-82
2023/08/07 04:50:46;;;;;;;6.40;3.40;;;;;;;13.77;100.00;96684.61;107645;1276;22528;-80
2023/08/07 04:53:14;;;;;;;6.10;4.10;;;;;;;13.76;100.00;96683.42;106964;1277;25245;-81
2023/08/07 04:55:43;;;;;;;20.00;4.30;;;;;;;13.76;100.00;96680.03;106926;1276;22538;-81
2023/08/07 04:58:12;;;;;;;8.20;4.00;;;;;;;13.68;100.00;96665.52;106796;1276;24329;-81
2023/08/07 05:00:40;;;;;;;6.10;3.70;;;;;;;13.77;100.00;96673.48;107001;1277;24209;-80
2023/08/07 05:03:08;;;;;;;10.90;3.70;;;;;;;13.78;100.00;96674.21;107044;1277;24250;-81
2023/08/07 05:05:36;;;;;;;4.60;3.00;;;;;;;13.79;100.00;96671.84;106821;1277;24199;-81
2023/08/07 05:08:04;;;;;;;5.50;3.70;;;;;;;13.80;100.00;96676.27;107019;1276;24403;-82
2023/08/07 05:10:32;;;;;;;7.90;3.40;;;;;;;13.79;100.00;96676.14;106999;1276;22592;-82
2023/08/07 05:13:00;;;;;;;7.70;3.60;;;;;;;13.78;100.00;96685.41;107051;1276;22643;-82
2023/08/07 05:15:30;;;;;;;3.40;2.80;;;;;;;13.77;100.00;96683.44;107016;1276;22550;-82
2023/08/07 05:17:58;;;;;;;10.30;3.70;;;;;;;13.73;100.00;96680.55;107036;1276;24253;-81
2023/08/07 05:20:26;;;;;;;6.70;2.80;;;;;;;13.74;100.00;96688.73;107025;1276;22603;-81
2023/08/07 05:22:55;;;;;;;4.80;2.90;;;;;;;13.75;100.00;96689.50;106947;1277;22983;-81
2023/08/07 05:25:24;;;;;;;5.00;2.90;;;;;;;13.72;100.00;96691.91;107032;1276;22817;-81
2023/08/07 05:27:52;;;;;;;5.60;3.20;;;;;;;13.64;100.00;96698.91;106993;1276;22655;-82
2023/08/07 05:30:20;;;;;;;3.80;2.60;;;;;;;13.64;100.00;96695.51;107005;1276;22514;-82
2023/08/07 05:32:48;;;;;;;7.70;3.00;;;;;;;13.60;100.00;96699.27;107018;1276;23232;-81
2023/08/07 05:35:16;;;;;;;6.70;2.70;;;;;;;13.56;100.00;96702.97;106984;1276;25614;-81
2023/08/07 05:37:44;;;;;;;6.00;3.10;;;;;;;13.55;100.00;96707.04;107045;1276;22525;-81
2023/08/07 05:40:12;;;;;;;4.50;2.50;;;;;;;13.53;100.00;96707.30;106988;1276;22530;-81
2023/08/07 05:42:41;;;;;;;6.30;3.10;;;;;;;13.51;100.00;96712.72;106820;1276;24361;-82
2023/08/07 05:45:10;;;;;;;6.10;2.90;;;;;;;13.48;100.00;96715.73;107014;1276;25316;-82
2023/08/07 05:47:38;;;;;;;6.20;2.40;;;;;;;13.47;100.00;96713.84;106964;1277;22609;-81
2023/08/07 05:50:07;;;;;;;3.70;2.60;;;;;;;13.43;100.00;96717.22;106995;1276;24245;-78
2023/08/07 05:52:35;;;;;;;4.20;2.70;;;;;;;13.40;100.00;96715.23;106653;1276;22786;-83
2023/08/07 05:55:07;;;;;;;4.50;2.50;;;;;;;13.38;100.00;96721.89;107034;1276;25242;-81
2023/08/07 05:57:36;;;;;;;4.80;2.30;;;;;;;13.39;100.00;96722.23;107020;1276;25332;-81
2023/08/07 06:00:04;;;;;;;3.20;2.40;;;;;;;13.36;100.00;96725.55;107098;1276;22656;-77
2023/08/07 06:02:38;;;;;;;4.40;2.40;;;;;;;13.37;100.00;96729.30;107016;1254;22571;-81
2023/08/07 06:05:07;;;;;;;6.20;2.60;;;;;;;13.37;100.00;96726.05;107037;1276;23089;-80
2023/08/07 06:07:35;;;;;;;4.10;2.40;;;;;;;13.41;100.00;96727.13;107020;1276;25504;-80
2023/08/07 06:10:04;;;;;;;5.30;2.40;;;;;;;13.40;100.00;96729.20;106987;1276;22599;-81
2023/08/07 06:12:32;;;;;;;9.30;3.30;;;;;;;13.43;100.00;96731.73;107005;1276;23885;-81
2023/08/07 06:15:00;;;;;;;6.20;2.50;;;;;;;13.44;100.00;96738.34;107001;1276;24646;-80
2023/08/07 06:17:28;;;;;;;5.10;2.40;;;;;;;13.44;100.00;96739.98;106969;1276;22544;-82
2023/08/07 06:19:56;;;;;;;6.00;2.90;;;;;;;13.47;100.00;96742.23;107027;1276;22591;-81
2023/08/07 06:22:24;;;;;;;9.50;6.20;;;;;;;13.49;100.00;96744.59;106993;1276;25341;-78
2023/08/07 06:24:52;;;;;;;8.00;4.30;;;;;;;13.49;100.00;96747.23;107044;1276;22525;-79
2023/08/07 06:27:22;;;;;;;7.70;3.40;;;;;;;13.51;100.00;96752.08;107042;1276;25542;-82
2023/08/07 06:29:50;;;;;;;6.60;3.20;;;;;;;13.52;100.00;96744.29;107188;1277;25278;-83
2023/08/07 06:32:18;;;;;;;42.10;24.90;;;;;;;13.56;100.00;96748.80;107747;1276;22597;-89
2023/08/07 06:34:46;;;;;;;48.00;22.00;;;;;;;13.58;100.00;96746.09;107324;1276;25443;-92
2023/08/07 06:37:14;;;;;;;29.50;13.80;;;;;;;13.59;100.00;96744.33;107596;1276;22527;-91
2023/08/07 06:39:42;;;;;;;40.80;17.40;;;;;;;13.64;100.00;96747.40;107731;1273;22568;-93
2023/08/07 06:42:10;;;;;;;19.90;10.50;;;;;;;13.67;100.00;96750.41;107393;1276;22643;-90
2023/08/07 06:44:42;;;;;;;18.70;9.40;;;;;;;13.66;100.00;96746.04;107101;1276;25291;-91
2023/08/07 06:47:10;;;;;;;9.20;5.70;;;;;;;13.65;100.00;96752.36;108318;1247;22503;-90
2023/08/07 06:49:41;;;;;;;3.60;3.00;;;;;;;13.61;100.00;96742.44;107271;1277;25467;-89
2023/08/07 06:52:09;;;;;;;6.80;3.20;;;;;;;13.70;100.00;96759.63;106860;1278;22508;-85
2023/08/07 06:54:37;;;;;;;5.10;3.10;;;;;;;13.70;100.00;96759.84;106594;1274;25332;-86
2023/08/07 06:57:05;;;;;;;3.40;2.40;;;;;;;13.73;100.00;96760.71;107433;1278;22524;-82
2023/08/07 06:59:33;;;;;;;4.30;2.60;;;;;;;13.75;100.00;96757.27;106885;1278;25394;-80
2023/08/07 07:02:02;;;;;;;4.30;3.10;;;;;;;13.73;100.00;96761.86;106920;1278;22529;-81
2023/08/07 07:04:30;;;;;;;4.30;2.50;;;;;;;13.74;100.00;96759.94;106993;1275;23163;-81
2023/08/07 07:06:58;;;;;;;5.70;2.90;;;;;;;13.73;100.00;96762.09;106906;1278;22531;-82
2023/08/07 07:09:28;;;;;;;7.50;2.40;;;;;;;13.76;100.00;96769.23;106892;1278;25429;-82
2023/08/07 07:11:57;;;;;;;5.90;2.30;;;;;;;13.80;100.00;96767.70;106850;1278;24364;-81
2023/08/07 07:14:25;;;;;;;7.80;3.30;;;;;;;13.82;100.00;96768.45;106758;1272;22535;-80
2023/08/07 07:16:53;;;;;;;9.30;3.60;;;;;;;13.83;100.00;96771.33;107470;1272;22517;-81
2023/08/07 07:19:22;;;;;;;3.30;2.50;;;;;;;13.87;100.00;96772.43;106943;1275;24223;-81
2023/08/07 07:21:50;;;;;;;9.20;5.20;;;;;;;13.87;100.00;96773.74;106992;1278;24225;-81
2023/08/07 07:24:18;;;;;;;9.20;3.80;;;;;;;13.81;100.00;96773.52;107049;1278;22724;-82
2023/08/07 07:26:46;;;;;;;5.70;3.80;;;;;;;13.80;100.00;96775.27;106986;1275;22644;-86
2023/08/07 07:29:18;;;;;;;5.20;2.80;;;;;;;13.83;100.00;96776.67;107363;1278;22547;-85
2023/08/07 07:31:46;;;;;;;7.00;4.50;;;;;;;13.86;100.00;96777.14;106998;1278;22569;-84
2023/08/07 07:34:14;;;;;;;4.10;3.10;;;;;;;13.92;100.00;96778.98;106592;1280;24052;-85
2023/08/07 07:36:42;;;;;;;4.50;3.40;;;;;;;13.97;100.00;96781.59;107069;1278;22566;-85
2023/08/07 07:39:11;;;;;;;3.50;2.30;;;;;;;14.00;100.00;96784.00;106886;1279;22528;-86
2023/08/07 07:41:39;;;;;;;6.00;2.50;;;;;;;14.05;100.00;96785.66;106923;1272;24245;-84
2023/08/07 07:44:07;;;;;;;5.10;2.40;;;;;;;14.12;100.00;96786.69;106937;1278;23890;-85
2023/08/07 07:46:35;;;;;;;3.20;2.40;;;;;;;14.13;100.00;96787.80;106988;1279;25372;-84
2023/08/07 07:49:04;;;;;;;8.90;3.80;;;;;;;14.10;100.00;96786.41;107055;1278;22522;-89
2023/08/07 07:51:34;;;;;;;4.30;2.60;;;;;;;14.11;100.00;96795.56;107069;1279;22562;-87
2023/08/07 07:54:05;;;;;;;6.40;3.40;;;;;;;14.12;100.00;96791.11;106833;1272;24256;-90
2023/08/07 07:56:36;;;;;;;5.90;3.10;;;;;;;14.13;100.00;96796.63;106812;1278;22676;-87
2023/08/07 07:59:04;;;;;;;6.30;3.60;;;;;;;14.15;100.00;96796.89;106840;1278;24232;-87
2023/08/07 08:01:35;;;;;;;6.80;3.30;;;;;;;14.13;100.00;96794.69;106937;1278;22603;-86
2023/08/07 08:04:04;;;;;;;6.30;3.60;;;;;;;14.13;100.00;96796.94;107025;1278;22634;-90
2023/08/07 08:06:32;;;;;;;4.90;3.60;;;;;;;14.17;100.00;96796.95;107158;1275;23896;-87
2023/08/07 08:09:04;;;;;;;6.70;3.40;;;;;;;14.19;100.00;96800.11;106944;1280;25321;-81
2023/08/07 08:11:32;;;;;;;3.00;2.30;;;;;;;14.19;100.00;96804.83;106928;1280;22527;-87
2023/08/07 08:14:01;;;;;;;3.50;3.20;;;;;;;14.19;100.00;96804.52;106920;1280;25360;-89
2023/08/07 08:16:29;;;;;;;7.10;3.50;;;;;;;14.20;100.00;96810.04;107541;1280;22542;-93
2023/08/07 08:18:57;;;;;;;3.90;2.50;;;;;;;14.20;100.00;96811.27;107270;1280;25481;-90
2023/08/07 08:21:25;;;;;;;4.10;2.80;;;;;;;14.18;100.00;96811.69;106883;1279;24223;-90
2023/08/07 08:23:53;;;;;;;5.10;2.70;;;;;;;14.20;100.00;96814.00;107270;1280;22580;-90
2023/08/07 08:26:21;;;;;;;5.00;2.40;;;;;;;14.22;100.00;96817.28;107610;1280;22739;-89
2023/08/07 08:28:49;;;;;;;6.50;2.90;;;;;;;14.20;100.00;96819.41;106932;1258;22646;-85
2023/08/07 08:31:17;;;;;;;5.20;2.80;;;;;;;14.18;100.00;96821.38;106908;1280;24040;-85
2023/08/07 08:33:45;;;;;;;8.60;3.10;;;;;;;14.15;100.00;96825.40;106946;1279;24252;-86
2023/08/07 08:36:54;;;;;;;2.90;2.30;;;;;;;14.15;100.00;96827.27;107554;1279;22535;-90
2023/08/07 08:39:50;;;;;;;3.80;2.80;;;;;;;14.17;100.00;96827.67;107103;1280;22531;-92
2023/08/07 08:42:20;;;;;;;3.50;2.50;;;;;;;14.16;100.00;96830.66;107797;1280;22567;-91
2023/08/07 08:44:52;;;;;;;5.00;3.20;;;;;;;14.16;100.00;96836.95;107222;1280;25311;-89
2023/08/07 08:47:22;;;;;;;4.20;3.10;;;;;;;14.14;100.00;96836.88;106981;1278;22563;-91
2023/08/07 08:50:03;;;;;;;5.00;3.10;;;;;;;14.10;100.00;96836.88;107112;1278;22657;-88
2023/08/07 08:56:17;;;;;;;2.80;2.10;;;;;;;13.99;100.00;96844.02;106972;1278;22524;-91
2023/08/07 08:59:40;;;;;;;3.50;2.20;;;;;;;13.86;100.00;96842.66;107084;1278;24187;-89
2023/08/07 09:02:10;;;;;;;5.60;2.70;;;;;;;13.76;100.00;96842.86;107114;1278;25428;-91
2023/08/07 09:04:38;;;;;;;4.90;3.50;;;;;;;13.71;100.00;96847.20;107079;1278;22466;-93
2023/08/07 09:07:06;;;;;;;5.60;3.20;;;;;;;13.71;100.00;96847.36;107386;1278;22521;-85
2023/08/07 09:09:35;;;;;;;4.90;3.60;;;;;;;13.71;100.00;96846.80;106939;1278;24199;-92
2023/08/07 09:12:04;;;;;;;4.50;2.60;;;;;;;13.71;100.00;96847.98;109217;1272;22637;-93
2023/08/07 09:14:36;;;;;;;6.20;3.30;;;;;;;13.72;100.00;96847.61;109010;1278;22575;-94
2023/08/07 09:17:05;;;;;;;3.50;3.20;;;;;;;13.78;100.00;96847.09;108742;1278;22507;-92
2023/08/07 09:19:33;;;;;;;8.10;7.30;;;;;;;13.80;100.00;96853.33;107829;1278;22791;-89
2023/08/07 09:22:01;;;;;;;6.80;5.20;;;;;;;13.81;100.00;96849.34;107523;1278;25889;-91
2023/08/07 09:24:29;;;;;;;6.20;3.40;;;;;;;13.85;100.00;96851.16;107035;1280;22608;-89
2023/08/07 09:26:58;;;;;;;8.10;4.90;;;;;;;13.91;100.00;96857.89;107009;1278;24810;-88
2023/08/07 09:29:26;;;;;;;7.40;4.90;;;;;;;13.96;100.00;96859.19;107152;1278;22748;-92
2023/08/07 09:31:54;;;;;;;6.30;4.30;;;;;;;14.03;100.00;96856.83;107351;1278;22536;-91
2023/08/07 09:34:23;;;;;;;4.10;3.10;;;;;;;14.09;100.00;96857.96;107006;1280;23481;-89
2023/08/07 09:36:51;;;;;;;3.60;3.20;;;;;;;14.15;100.00;96859.35;106976;1280;22534;-90
2023/08/07 09:39:25;;;;;;;6.50;3.90;;;;;;;14.18;100.00;96859.08;106940;1278;24225;-86
2023/08/07 09:41:56;;;;;;;5.10;3.60;;;;;;;14.21;100.00;96858.44;107148;1278;24225;-89
2023/08/07 09:44:24;;;;;;;8.00;3.60;;;;;;;14.25;100.00;96861.94;107623;1279;22562;-83
2023/08/07 09:46:52;;;;;;;3.70;3.10;;;;;;;14.31;100.00;96863.50;107325;1279;22604;-82
2023/08/07 09:49:21;;;;;;;4.30;2.80;;;;;;;14.37;100.00;96869.15;107171;1272;25231;-85
2023/08/07 09:51:50;;;;;;;5.30;3.00;;;;;;;14.44;100.00;96867.70;107096;1278;24568;-84
2023/08/07 09:54:18;;;;;;;5.70;3.00;;;;;;;14.46;100.00;96861.56;106726;1278;24403;-86
2023/08/07 09:56:47;;;;;;;3.00;2.40;;;;;;;14.49;100.00;96872.40;106934;1278;22558;-88
2023/08/07 09:59:16;;;;;;;5.80;3.80;;;;;;;14.48;100.00;96869.73;106606;1280;22665;-81
2023/08/07 10:01:44;;;;;;;7.70;3.10;;;;;;;14.52;100.00;96872.75;107353;1279;22559;-81
2023/08/07 10:04:15;;;;;;;4.40;3.60;;;;;;;14.57;100.00;96873.69;107140;1279;25252;-82
2023/08/07 10:06:44;;;;;;;8.50;3.70;;;;;;;14.56;100.00;96877.31;106985;1280;22527;-82
2023/08/07 10:09:12;;;;;;;4.70;2.40;;;;;;;14.55;100.00;96883.33;107046;1280;25400;-81
2023/08/07 10:11:41;;;;;;;4.20;2.60;;;;;;;14.52;100.00;96878.17;106998;1278;22806;-81
2023/08/07 10:14:11;;;;;;;4.20;2.70;;;;;;;14.55;100.00;96881.80;107163;1278;24350;-82
2023/08/07 10:16:41;;;;;;;3.60;2.60;;;;;;;14.60;100.00;96884.22;107029;1278;22534;-82
2023/08/07 10:19:09;;;;;;;4.60;2.60;;;;;;;14.60;100.00;96885.45;107033;1278;22671;-82
2023/08/07 10:21:39;;;;;;;4.10;2.40;;;;;;;14.68;100.00;96881.34;106981;1278;22550;-82
2023/08/07 10:24:09;;;;;;;4.00;2.70;;;;;;;14.76;100.00;96877.66;107047;1278;22733;-82
2023/08/07 10:26:43;;;;;;;2.90;2.40;;;;;;;14.88;100.00;96878.19;107050;1273;22558;-80
2023/08/07 10:29:16;;;;;;;4.10;2.70;;;;;;;15.00;100.00;96874.89;107088;1278;24373;-81
2023/08/07 10:31:45;;;;;;;3.30;2.60;;;;;;;15.03;100.00;96878.14;107030;1278;22660;-80
2023/08/07 10:34:14;;;;;;;3.80;2.70;;;;;;;14.98;100.00;96883.30;106963;1268;22670;-79
2023/08/07 10:36:42;;;;;;;4.10;2.00;;;;;;;14.95;100.00;96887.34;106937;1278;26529;-80
2023/08/07 10:39:16;;;;;;;3.80;2.10;;;;;;;14.96;100.00;96893.10;107007;1278;22523;-81
2023/08/07 10:41:47;;;;;;;;;;;;;;;15.05;100.00;96889.17;107053;1279;24502;-79
2023/08/07 10:44:30;;;;;;;3.60;2.80;;;;;;;15.17;100.00;96886.14;107095;1279;24264;-85
2023/08/07 10:47:00;;;;;;;4.40;3.00;;;;;;;15.36;100.00;96883.22;106774;1279;24502;-83
2023/08/07 10:49:38;;;;;;;9.10;2.90;;;;;;;15.51;100.00;96884.00;107980;1263;23158;-88
2023/08/07 10:52:16;;;;;;;5.00;3.20;;;;;;;15.60;100.00;96881.71;107130;1276;22524;-86
2023/08/07 10:54:47;;;;;;;5.10;2.90;;;;;;;15.66;100.00;96878.84;106954;1280;24202;-87
2023/08/07 10:57:18;;;;;;;5.70;3.10;;;;;;;15.64;100.00;96880.02;106958;1280;25325;-82
2023/08/07 10:59:55;;;;;;;4.90;3.10;;;;;;;15.67;100.00;96887.09;107088;1280;25322;-83
2023/08/07 11:02:27;;;;;;;2.60;2.00;;;;;;;15.71;100.00;96880.25;106949;1265;24208;-84
2023/08/07 11:04:56;;;;;;;2.80;2.30;;;;;;;15.81;100.00;96880.55;106876;1280;23420;-83
2023/08/07 11:07:28;;;;;;;3.50;2.10;;;;;;;15.86;100.00;96878.87;106963;1279;22558;-83
2023/08/07 11:09:57;;;;;;;6.10;3.80;;;;;;;15.81;100.00;96884.34;106923;1279;25519;-83
2023/08/07 11:12:29;;;;;;;6.60;3.00;;;;;;;15.75;100.00;96894.93;107041;1272;22532;-85
2023/08/07 11:14:57;;;;;;;3.90;2.60;;;;;;;15.66;100.00;96914.14;107141;1275;25230;-90
2023/08/07 11:17:26;;;;;;;3.90;2.70;;;;;;;15.22;99.64;96926.86;107042;1278;22530;-85
2023/08/07 11:19:56;;;;;;;3.20;2.60;;;;;;;14.65;99.28;96935.33;107069;1276;22525;-87
2023/08/07 11:22:24;;;;;;;4.10;2.70;;;;;;;14.24;100.00;96930.81;106957;1279;24252;-88
2023/08/07 11:24:53;;;;;;;4.70;2.50;;;;;;;14.00;100.00;96927.61;106981;1278;22552;-84
2023/08/07 11:27:22;;;;;;;3.50;2.60;;;;;;;13.86;100.00;96931.25;106962;1272;24377;-84
2023/08/07 11:29:50;;;;;;;4.20;2.80;;;;;;;13.70;100.00;96935.95;106866;1279;24199;-85
2023/08/07 11:32:20;;;;;;;5.20;2.80;;;;;;;13.55;100.00;96940.49;106907;1278;22662;-85
2023/08/07 11:34:50;;;;;;;4.90;2.90;;;;;;;13.47;100.00;96937.75;107002;1272;22560;-85
2023/08/07 11:37:19;;;;;;;5.10;3.10;;;;;;;13.41;100.00;96936.96;106838;1279;23914;-86